Time;durP1;ratioP1;P1;durP2;ratioP2;P2;SDS_P1;SDS_P2;PMS_P1;PMS_P2;Temp;Humidity;BMP_temperature;BMP_pressure;BME280_temperature;BME280_humidity;BME280_pressure;Samples;Min_cycle;Max_cycle;Signal;HPM_P1;HPM_P2
2021/12/03 00:01:26;;;;;;;8.75;6.15;;;4.70;99.90;;;;;;4978251;28;20178;-78
2021/12/03 00:03:52;;;;;;;10.23;5.82;;;4.70;99.90;;;;;;4960838;28;20170;-78
2021/12/03 00:06:19;;;;;;;10.95;5.38;;;4.80;99.90;;;;;;4979095;28;20217;-79
2021/12/03 00:08:45;;;;;;;13.90;7.95;;;4.70;99.90;;;;;;4990230;28;20169;-79
2021/12/03 00:11:12;;;;;;;13.27;5.45;;;4.90;99.90;;;;;;4993297;28;20174;-82
2021/12/03 00:13:39;;;;;;;13.38;6.15;;;5.00;99.90;;;;;;4993266;28;20660;-78
2021/12/03 00:16:05;;;;;;;9.40;5.65;;;4.80;99.90;;;;;;4990498;28;20216;-78
2021/12/03 00:18:32;;;;;;;10.35;5.40;;;4.70;99.90;;;;;;4978795;28;20177;-77
2021/12/03 00:21:01;;;;;;;11.82;6.03;;;4.70;99.90;;;;;;4974299;28;20166;-78
2021/12/03 00:23:28;;;;;;;13.15;6.45;;;4.50;99.90;;;;;;4974177;28;20193;-79
2021/12/03 00:25:54;;;;;;;13.23;6.18;;;4.30;99.90;;;;;;4974337;28;20241;-79
2021/12/03 00:28:20;;;;;;;14.88;5.75;;;4.40;99.90;;;;;;4973845;28;20236;-77
2021/12/03 00:30:46;;;;;;;13.57;5.50;;;4.60;99.90;;;;;;4973715;28;20170;-78
2021/12/03 00:33:12;;;;;;;6.13;4.95;;;4.60;99.90;;;;;;4973891;28;20220;-78
2021/12/03 00:35:38;;;;;;;19.60;6.07;;;4.60;99.90;;;;;;4973824;28;20201;-77
2021/12/03 00:38:04;;;;;;;10.80;5.68;;;4.50;99.90;;;;;;4973898;28;20228;-79
2021/12/03 00:40:35;;;;;;;9.77;4.88;;;4.50;99.90;;;;;;4974119;28;20172;-82
2021/12/03 00:43:02;;;;;;;9.77;5.75;;;4.40;99.90;;;;;;4974090;28;20178;-77
2021/12/03 00:45:29;;;;;;;11.95;5.57;;;4.30;99.90;;;;;;4973594;28;20184;-80
2021/12/03 00:47:55;;;;;;;13.80;5.53;;;4.40;99.90;;;;;;4960237;28;20625;-78
2021/12/03 00:50:23;;;;;;;9.82;4.82;;;4.30;99.90;;;;;;4976247;28;20178;-79
2021/12/03 00:52:50;;;;;;;9.85;5.80;;;4.40;99.90;;;;;;4977767;28;20257;-77
2021/12/03 00:55:17;;;;;;;9.27;5.35;;;4.30;99.90;;;;;;4977645;28;20178;-77
2021/12/03 00:57:42;;;;;;;18.75;5.60;;;4.50;99.90;;;;;;4978009;28;20201;-77
2021/12/03 01:00:18;;;;;;;16.88;6.43;;;4.20;99.90;;;;;;4977896;28;20170;-78
2021/12/03 01:02:45;;;;;;;12.23;5.85;;;4.30;99.90;;;;;;4977151;28;20263;-77
2021/12/03 01:05:10;;;;;;;14.85;6.03;;;4.20;99.90;;;;;;4977460;28;20176;-82
2021/12/03 01:07:37;;;;;;;18.40;5.53;;;4.20;99.90;;;;;;4977279;28;20193;-78
2021/12/03 01:10:04;;;;;;;9.57;6.28;;;4.10;99.90;;;;;;4977612;28;20624;-77
2021/12/03 01:12:30;;;;;;;13.50;6.22;;;4.20;99.90;;;;;;4977390;28;20158;-77
2021/12/03 01:14:56;;;;;;;23.55;6.85;;;4.20;99.90;;;;;;4977133;28;20180;-80
2021/12/03 01:17:22;;;;;;;7.47;6.13;;;4.30;99.90;;;;;;4977099;28;20213;-80
2021/12/03 01:19:48;;;;;;;13.30;6.03;;;4.20;99.90;;;;;;4977532;28;20201;-77
2021/12/03 01:22:13;;;;;;;20.17;7.47;;;4.40;99.90;;;;;;4959858;28;20174;-78
2021/12/03 01:24:39;;;;;;;8.73;5.70;;;4.30;99.90;;;;;;4977524;28;20181;-80
2021/12/03 01:27:05;;;;;;;16.83;6.65;;;4.30;99.90;;;;;;4977058;28;20201;-77
2021/12/03 01:29:30;;;;;;;15.88;6.78;;;4.20;99.90;;;;;;4977287;28;20679;-77
2021/12/03 01:31:58;;;;;;;13.07;6.18;;;4.30;99.90;;;;;;4977722;28;20177;-77
2021/12/03 01:34:24;;;;;;;18.92;7.18;;;4.40;99.90;;;;;;4977424;28;20201;-77
2021/12/03 01:36:50;;;;;;;17.33;6.80;;;4.20;99.90;;;;;;4976891;28;20237;-77
2021/12/03 01:39:16;;;;;;;21.33;8.15;;;3.90;99.90;;;;;;4959630;28;20165;-77
2021/12/03 01:41:43;;;;;;;14.45;7.65;;;3.90;99.90;;;;;;4976626;28;20173;-78
2021/12/03 01:44:09;;;;;;;13.25;6.75;;;4.00;99.90;;;;;;4977073;28;20165;-77
2021/12/03 01:46:35;;;;;;;16.55;7.93;;;4.00;99.90;;;;;;4977096;28;20217;-78
2021/12/03 01:49:01;;;;;;;19.88;6.97;;;4.00;99.90;;;;;;4976968;28;20715;-81
2021/12/03 01:51:27;;;;;;;19.90;7.38;;;3.90;99.90;;;;;;4982221;28;20174;-78
2021/12/03 01:53:53;;;;;;;23.60;7.47;;;4.00;99.90;;;;;;4995451;28;20225;-78
2021/12/03 01:56:20;;;;;;;27.17;8.00;;;4.10;99.90;;;;;;4980399;28;20241;-84
2021/12/03 01:58:47;;;;;;;19.80;7.80;;;4.10;99.90;;;;;;4975403;28;20174;-78
2021/12/03 02:01:15;;;;;;;21.00;7.70;;;4.00;99.90;;;;;;4958848;28;20173;-78
2021/12/03 02:03:45;;;;;;;23.67;7.53;;;3.90;99.90;;;;;;4976674;28;20715;-81
2021/12/03 02:06:12;;;;;;;17.10;7.45;;;4.10;99.90;;;;;;4976538;28;20190;-85
2021/12/03 02:08:39;;;;;;;17.38;7.22;;;4.10;99.90;;;;;;4976632;28;20165;-78
2021/12/03 02:11:06;;;;;;;19.77;7.85;;;3.80;99.90;;;;;;4976156;28;20675;-82
2021/12/03 02:13:33;;;;;;;22.40;6.53;;;3.70;99.90;;;;;;4976323;28;20174;-83
2021/12/03 02:15:59;;;;;;;19.70;7.97;;;3.80;99.90;;;;;;4976154;28;20336;-78
2021/12/03 02:18:24;;;;;;;12.95;6.22;;;4.00;99.90;;;;;;4976284;28;20256;-78
2021/12/03 02:20:57;;;;;;;10.38;6.82;;;4.00;99.90;;;;;;4976388;28;20525;-78
2021/12/03 02:23:23;;;;;;;14.90;7.50;;;3.90;99.90;;;;;;4975981;28;20181;-78
2021/12/03 02:25:50;;;;;;;20.92;7.78;;;4.10;99.90;;;;;;4959026;28;20187;-83
2021/12/03 02:28:17;;;;;;;18.50;6.40;;;3.90;99.90;;;;;;4976695;28;20174;-84
2021/12/03 02:30:44;;;;;;;19.67;6.57;;;3.90;99.90;;;;;;4958644;28;20165;-78
2021/12/03 02:33:10;;;;;;;19.58;5.93;;;4.10;99.90;;;;;;4975872;28;20203;-80
2021/12/03 02:35:39;;;;;;;22.38;7.18;;;4.30;99.90;;;;;;4975580;28;20162;-84
2021/12/03 02:38:06;;;;;;;22.05;6.70;;;4.20;99.90;;;;;;4975525;28;20197;-82
2021/12/03 02:40:31;;;;;;;18.27;6.78;;;4.30;99.90;;;;;;4975886;28;20178;-82
2021/12/03 02:42:57;;;;;;;13.27;6.07;;;4.30;99.90;;;;;;4978742;28;20193;-79
2021/12/03 02:45:23;;;;;;;24.70;6.63;;;4.30;99.90;;;;;;4977600;28;20532;-81
2021/12/03 02:47:49;;;;;;;16.02;5.85;;;4.20;99.90;;;;;;4976522;28;20652;-79
2021/12/03 02:50:15;;;;;;;19.63;7.05;;;4.00;99.90;;;;;;4977428;28;20170;-83
2021/12/03 02:52:42;;;;;;;34.42;6.38;;;4.00;99.90;;;;;;4976580;28;20711;-77
2021/12/03 02:55:09;;;;;;;31.65;7.05;;;4.10;99.90;;;;;;4975991;28;20174;-79
2021/12/03 02:57:35;;;;;;;13.13;6.25;;;4.10;99.90;;;;;;4958769;28;20209;-76
2021/12/03 03:00:01;;;;;;;27.85;6.50;;;3.80;99.90;;;;;;4976479;28;20257;-76
2021/12/03 03:02:27;;;;;;;10.95;5.30;;;3.60;99.90;;;;;;4975779;28;20644;-76
2021/12/03 03:04:53;;;;;;;22.83;6.13;;;3.50;99.90;;;;;;4976068;28;20169;-77
2021/12/03 03:07:19;;;;;;;20.08;5.60;;;3.40;99.90;;;;;;4975834;28;20190;-78
2021/12/03 03:09:46;;;;;;;17.38;6.80;;;3.40;99.90;;;;;;4975633;28;20178;-77
2021/12/03 03:12:13;;;;;;;17.20;6.10;;;3.60;99.90;;;;;;4976301;28;20181;-77
2021/12/03 03:14:50;;;;;;;36.53;5.80;;;3.50;99.90;;;;;;4958902;28;20178;-77
2021/12/03 03:17:16;;;;;;;9.45;5.18;;;3.40;99.90;;;;;;4975757;28;20739;-77
2021/12/03 03:19:42;;;;;;;19.45;6.63;;;3.50;99.90;;;;;;4975631;28;20190;-84
2021/12/03 03:22:08;;;;;;;11.40;5.40;;;3.60;99.90;;;;;;4975407;28;20264;-80
2021/12/03 03:24:34;;;;;;;26.27;5.75;;;3.40;99.90;;;;;;4957805;28;20236;-76
2021/12/03 03:27:01;;;;;;;27.77;6.18;;;3.60;99.90;;;;;;4974928;28;20190;-78
2021/12/03 03:29:28;;;;;;;14.57;5.80;;;3.80;99.90;;;;;;4975065;28;20644;-79
2021/12/03 03:31:57;;;;;;;17.38;6.22;;;3.90;99.90;;;;;;4974962;28;20173;-77
2021/12/03 03:34:22;;;;;;;11.40;5.78;;;3.90;99.90;;;;;;4975529;28;20205;-76
2021/12/03 03:36:48;;;;;;;23.60;5.30;;;3.70;99.90;;;;;;4975048;28;20632;-82
2021/12/03 03:39:14;;;;;;;23.52;5.30;;;3.70;99.90;;;;;;4975205;28;20197;-80
2021/12/03 03:41:41;;;;;;;21.00;5.38;;;3.70;99.90;;;;;;4975472;28;20176;-83
2021/12/03 03:44:07;;;;;;;17.27;5.25;;;3.80;99.90;;;;;;4975481;28;20670;-81
2021/12/03 03:46:33;;;;;;;15.73;5.53;;;3.80;99.90;;;;;;4975394;28;20186;-82
2021/12/03 03:48:58;;;;;;;25.48;6.30;;;3.90;99.90;;;;;;4975246;28;20168;-78
2021/12/03 03:51:24;;;;;;;19.08;4.75;;;3.70;99.90;;;;;;4975608;28;20174;-78
2021/12/03 03:53:50;;;;;;;17.75;6.18;;;3.70;99.90;;;;;;4975193;28;20169;-84
2021/12/03 03:56:16;;;;;;;20.45;4.68;;;3.70;99.90;;;;;;4975677;28;20216;-77
2021/12/03 03:58:43;;;;;;;18.83;5.28;;;3.80;99.90;;;;;;4974257;28;20607;-76
2021/12/03 04:01:10;;;;;;;13.27;5.28;;;3.80;99.90;;;;;;4974680;28;20209;-78
2021/12/03 04:03:37;;;;;;;32.88;5.43;;;3.70;99.90;;;;;;4974931;28;20174;-78
2021/12/03 04:06:03;;;;;;;13.68;5.38;;;3.70;99.90;;;;;;4975088;28;20206;-77
2021/12/03 04:08:29;;;;;;;19.95;6.40;;;3.50;99.90;;;;;;4974949;28;20260;-77
2021/12/03 04:10:59;;;;;;;14.85;5.05;;;3.50;99.90;;;;;;4974748;28;20197;-77
2021/12/03 04:13:26;;;;;;;17.15;4.38;;;3.50;99.90;;;;;;4958688;28;20170;-78
2021/12/03 04:15:51;;;;;;;18.17;5.32;;;3.50;99.90;;;;;;4974752;28;20288;-78
2021/12/03 04:18:17;;;;;;;12.02;4.68;;;3.40;99.90;;;;;;4975690;28;20172;-77
2021/12/03 04:20:43;;;;;;;25.17;5.28;;;3.50;99.90;;;;;;4978917;28;20242;-77
2021/12/03 04:23:09;;;;;;;32.15;4.60;;;3.50;99.90;;;;;;4976381;28;20192;-77
2021/12/03 04:25:34;;;;;;;18.75;4.68;;;3.50;99.90;;;;;;4974111;28;20173;-77
2021/12/03 04:28:00;;;;;;;20.20;4.15;;;3.50;99.90;;;;;;4974435;28;20170;-77
2021/12/03 04:30:28;;;;;;;11.55;3.85;;;3.50;99.90;;;;;;4957037;28;20169;-77
2021/12/03 04:32:55;;;;;;;18.27;5.40;;;3.60;99.90;;;;;;4974408;28;20169;-77
2021/12/03 04:35:22;;;;;;;21.15;4.80;;;3.50;99.90;;;;;;4974718;28;20244;-78
2021/12/03 04:37:48;;;;;;;26.55;3.80;;;3.40;99.90;;;;;;4974676;28;20206;-77
2021/12/03 04:40:15;;;;;;;21.75;4.70;;;3.40;99.90;;;;;;4974337;28;20225;-78
2021/12/03 04:42:41;;;;;;;15.48;3.95;;;3.40;99.90;;;;;;4974467;28;20752;-79
2021/12/03 04:45:09;;;;;;;23.30;5.18;;;3.40;99.90;;;;;;4974362;28;20641;-77
2021/12/03 04:47:35;;;;;;;18.80;5.75;;;3.30;99.90;;;;;;4956288;28;20197;-78
2021/12/03 04:50:03;;;;;;;10.90;3.90;;;3.50;99.90;;;;;;4956136;28;20170;-78
2021/12/03 04:52:29;;;;;;;23.10;5.75;;;3.30;99.90;;;;;;4956176;28;20220;-78
2021/12/03 04:54:55;;;;;;;11.18;4.50;;;3.40;99.90;;;;;;4975229;28;20647;-77
2021/12/03 04:57:20;;;;;;;23.80;5.88;;;3.40;99.90;;;;;;4974622;28;20300;-77
2021/12/03 04:59:46;;;;;;;20.13;4.80;;;3.40;99.90;;;;;;4974721;28;20174;-78
2021/12/03 05:02:12;;;;;;;17.75;4.03;;;3.40;99.90;;;;;;4973717;28;20261;-78
2021/12/03 05:04:38;;;;;;;20.05;4.78;;;3.40;99.90;;;;;;4975126;28;20158;-77
2021/12/03 05:09:34;;;;;;;17.58;5.25;;;3.50;99.90;;;;;;4974273;28;20170;-80
2021/12/03 05:12:00;;;;;;;12.68;4.32;;;3.60;99.90;;;;;;4974413;28;20504;-77
2021/12/03 05:14:27;;;;;;;19.23;5.05;;;3.60;99.90;;;;;;4974177;28;20220;-77
2021/12/03 05:16:52;;;;;;;15.43;4.95;;;3.70;99.90;;;;;;4974652;28;20305;-77
2021/12/03 05:19:18;;;;;;;11.43;3.33;;;3.90;99.90;;;;;;4974105;28;20205;-77
2021/12/03 05:21:44;;;;;;;12.02;4.03;;;4.00;99.90;;;;;;4974142;28;20170;-78
2021/12/03 05:24:11;;;;;;;18.85;4.30;;;4.10;99.90;;;;;;4974010;28;20185;-78
2021/12/03 05:26:38;;;;;;;16.60;3.65;;;4.00;99.90;;;;;;4974167;28;20192;-78
2021/12/03 05:29:05;;;;;;;20.73;3.75;;;4.10;99.90;;;;;;4975881;28;20173;-77
2021/12/03 05:31:32;;;;;;;11.13;4.22;;;4.00;99.90;;;;;;4974058;28;20166;-78
2021/12/03 05:33:58;;;;;;;11.35;4.00;;;4.00;99.90;;;;;;4979606;28;20172;-79
2021/12/03 05:36:23;;;;;;;16.05;4.13;;;3.90;99.90;;;;;;4979744;28;20205;-77
2021/12/03 05:38:49;;;;;;;12.48;4.03;;;4.10;99.90;;;;;;4977604;28;20166;-77
2021/12/03 05:41:16;;;;;;;15.95;3.92;;;4.00;99.90;;;;;;4978505;28;20173;-77
2021/12/03 05:43:42;;;;;;;17.02;4.45;;;3.70;99.90;;;;;;4977547;28;20245;-78
2021/12/03 05:46:08;;;;;;;13.68;3.67;;;3.50;99.90;;;;;;4977226;28;20747;-79
2021/12/03 05:48:34;;;;;;;17.20;4.50;;;3.60;99.90;;;;;;4976443;28;20162;-78
2021/12/03 05:50:59;;;;;;;15.45;4.50;;;3.70;99.90;;;;;;4977295;28;20174;-78
2021/12/03 05:53:25;;;;;;;11.35;4.57;;;3.80;99.90;;;;;;4979165;28;20190;-80
2021/12/03 05:55:51;;;;;;;18.80;4.55;;;3.70;99.90;;;;;;4977800;28;20255;-76
2021/12/03 05:58:18;;;;;;;12.10;3.92;;;3.80;99.90;;;;;;4978828;28;20170;-77
2021/12/03 06:00:44;;;;;;;12.77;4.35;;;3.60;99.90;;;;;;4978149;28;20241;-79
2021/12/03 06:03:10;;;;;;;14.80;4.80;;;3.60;99.90;;;;;;4961159;28;20166;-78
2021/12/03 06:05:39;;;;;;;13.85;3.55;;;3.50;99.90;;;;;;4978303;28;20158;-77
2021/12/03 06:08:04;;;;;;;24.83;4.68;;;3.60;99.90;;;;;;4978680;28;20540;-78
2021/12/03 06:10:30;;;;;;;16.25;4.40;;;3.80;99.90;;;;;;4979282;28;20245;-76
2021/12/03 06:12:56;;;;;;;19.65;3.28;;;4.00;99.90;;;;;;4976971;28;20181;-77
2021/12/03 06:15:22;;;;;;;9.18;3.85;;;4.00;99.90;;;;;;4976913;28;20194;-79
2021/12/03 06:17:48;;;;;;;18.30;4.40;;;4.00;99.90;;;;;;4976845;28;20213;-76
2021/12/03 06:20:16;;;;;;;18.50;4.70;;;4.00;99.90;;;;;;4976734;28;20221;-82
2021/12/03 06:22:41;;;;;;;15.63;3.58;;;3.80;99.90;;;;;;4976386;28;20189;-80
2021/12/03 06:25:09;;;;;;;17.27;4.10;;;3.90;99.90;;;;;;4976826;28;20165;-77
2021/12/03 06:27:36;;;;;;;11.70;3.80;;;3.90;99.90;;;;;;4976605;28;20251;-76
2021/12/03 06:30:06;;;;;;;10.82;3.20;;;4.00;99.90;;;;;;4959103;28;20174;-79
2021/12/03 06:32:33;;;;;;;6.57;3.42;;;4.10;99.90;;;;;;4977283;28;20166;-76
2021/12/03 06:34:58;;;;;;;15.25;2.72;;;4.10;99.90;;;;;;4977048;28;20162;-77
2021/12/03 06:37:25;;;;;;;8.05;3.78;;;4.00;99.90;;;;;;4977459;28;20205;-80
2021/12/03 06:39:51;;;;;;;16.55;3.47;;;3.90;99.90;;;;;;4978233;28;20173;-78
2021/12/03 06:42:16;;;;;;;8.68;3.05;;;4.00;99.90;;;;;;4976794;28;20662;-76
2021/12/03 06:44:42;;;;;;;15.48;4.32;;;3.90;99.90;;;;;;4959808;28;20173;-77
2021/12/03 06:47:08;;;;;;;11.30;2.70;;;3.80;99.90;;;;;;4976908;28;20244;-77
2021/12/03 06:49:34;;;;;;;7.85;2.35;;;3.80;99.90;;;;;;4975977;28;20170;-77
2021/12/03 06:52:04;;;;;;;12.30;2.75;;;3.70;99.90;;;;;;4977056;28;20515;-76
2021/12/03 06:54:31;;;;;;;8.77;2.70;;;3.70;99.90;;;;;;4978567;28;20588;-76
2021/12/03 06:56:58;;;;;;;26.08;3.75;;;3.90;99.90;;;;;;4982004;28;20204;-77
2021/12/03 06:59:24;;;;;;;13.48;2.85;;;4.10;99.90;;;;;;4980180;28;20181;-77
2021/12/03 07:01:52;;;;;;;15.90;3.42;;;4.10;99.90;;;;;;4979035;28;20640;-76
2021/12/03 07:04:18;;;;;;;8.80;3.50;;;4.20;99.90;;;;;;4976635;28;20174;-76
2021/12/03 07:06:44;;;;;;;14.43;3.78;;;4.30;99.90;;;;;;4976191;28;20190;-76
2021/12/03 07:09:10;;;;;;;15.07;2.95;;;4.30;99.90;;;;;;4978753;28;20293;-77
2021/12/03 07:11:36;;;;;;;9.15;3.42;;;4.50;99.90;;;;;;4976906;28;20617;-79
2021/12/03 07:14:02;;;;;;;22.92;4.75;;;4.50;99.90;;;;;;4976124;28;20178;-79
2021/12/03 07:16:28;;;;;;;10.65;3.97;;;4.40;99.90;;;;;;4975618;28;20217;-79
2021/12/03 07:18:53;;;;;;;8.15;3.17;;;4.10;99.90;;;;;;4975868;28;20236;-76
2021/12/03 07:21:19;;;;;;;27.92;4.97;;;4.20;99.90;;;;;;4975629;28;20193;-77
2021/12/03 07:23:45;;;;;;;12.27;3.70;;;4.30;99.90;;;;;;4975627;28;20193;-77
2021/12/03 07:26:10;;;;;;;16.45;3.38;;;4.40;99.90;;;;;;4959685;28;20186;-77
2021/12/03 07:28:37;;;;;;;14.07;3.70;;;4.60;99.90;;;;;;4976421;28;20624;-80
2021/12/03 07:31:03;;;;;;;7.50;3.00;;;4.70;99.90;;;;;;4976412;28;20578;-78
2021/12/03 07:33:31;;;;;;;14.50;3.95;;;4.80;99.90;;;;;;4977683;28;20206;-77
2021/12/03 07:35:57;;;;;;;16.77;4.43;;;4.60;99.90;;;;;;4974075;28;20198;-78
2021/12/03 07:38:22;;;;;;;17.30;3.03;;;4.70;99.90;;;;;;4977756;28;20193;-78
2021/12/03 07:40:49;;;;;;;14.25;4.13;;;4.70;99.90;;;;;;4975803;28;20185;-77
2021/12/03 07:43:19;;;;;;;9.05;3.20;;;4.50;99.90;;;;;;4976876;28;20524;-78
2021/12/03 07:45:46;;;;;;;5.63;2.92;;;4.60;99.90;;;;;;4975864;28;20166;-77
2021/12/03 07:48:12;;;;;;;17.23;3.55;;;4.40;99.90;;;;;;4976256;28;20256;-79
2021/12/03 07:50:39;;;;;;;10.25;3.60;;;4.40;99.90;;;;;;4975419;28;20174;-81
2021/12/03 07:53:07;;;;;;;18.35;3.80;;;4.20;99.90;;;;;;4974362;28;20178;-78
2021/12/03 07:55:33;;;;;;;6.97;3.58;;;4.20;99.90;;;;;;4973452;28;20165;-77
2021/12/03 07:57:58;;;;;;;10.43;4.03;;;4.30;99.90;;;;;;4956697;28;20174;-77
2021/12/03 08:00:24;;;;;;;6.28;3.33;;;4.40;99.90;;;;;;4973643;28;20253;-77
2021/12/03 08:02:50;;;;;;;8.25;3.88;;;4.30;99.90;;;;;;4973693;28;20528;-79
2021/12/03 08:05:16;;;;;;;16.63;3.67;;;4.40;99.90;;;;;;4956203;28;20220;-76
2021/12/03 08:07:45;;;;;;;12.30;4.13;;;4.30;99.90;;;;;;4962557;28;20202;-77
2021/12/03 08:10:13;;;;;;;7.15;3.38;;;4.30;99.90;;;;;;4954364;29;20226;-77
2021/12/03 08:12:40;;;;;;;8.65;3.70;;;4.40;99.90;;;;;;4954152;29;20198;-75
2021/12/03 08:15:06;;;;;;;9.35;3.83;;;4.60;99.90;;;;;;4954319;29;20537;-75
2021/12/03 08:17:32;;;;;;;11.82;3.78;;;4.50;99.90;;;;;;4945476;28;20309;-77
2021/12/03 08:19:58;;;;;;;15.25;3.83;;;4.60;99.90;;;;;;4976792;28;20216;-76
2021/12/03 08:22:24;;;;;;;18.45;4.70;;;4.50;99.90;;;;;;4972931;28;20249;-78
2021/12/03 08:24:49;;;;;;;10.30;4.13;;;4.60;99.90;;;;;;4979498;28;20209;-77
2021/12/03 08:27:16;;;;;;;12.07;3.45;;;4.80;99.90;;;;;;4959929;28;20277;-79
2021/12/03 08:29:41;;;;;;;12.13;4.25;;;4.80;99.90;;;;;;4958115;28;20578;-80
2021/12/03 08:32:07;;;;;;;9.93;3.97;;;4.90;99.90;;;;;;4973386;28;20253;-78
2021/12/03 08:34:33;;;;;;;16.38;4.22;;;4.70;99.90;;;;;;4977869;28;20170;-77
2021/12/03 08:36:58;;;;;;;14.57;4.15;;;4.70;99.90;;;;;;4974081;28;20217;-79
2021/12/03 08:39:24;;;;;;;18.17;4.82;;;4.80;99.90;;;;;;4958081;28;20174;-78
2021/12/03 08:41:49;;;;;;;16.27;4.43;;;4.90;99.90;;;;;;4975211;28;20165;-78
2021/12/03 08:44:15;;;;;;;11.70;4.22;;;5.10;99.90;;;;;;4973369;28;20185;-78
2021/12/03 08:46:41;;;;;;;11.23;2.83;;;5.20;99.90;;;;;;4975793;28;20204;-78
2021/12/03 08:49:28;;;;;;;5.40;3.63;;;5.20;99.90;;;;;;4978523;28;20177;-78
2021/12/03 08:57:11;;;;;;;7.10;4.22;;;5.00;99.90;;;;;;4973446;28;20321;-77
2021/12/03 08:59:37;;;;;;;8.50;4.65;;;5.10;99.90;;;;;;4973603;28;20170;-76
2021/12/03 09:02:03;;;;;;;8.45;3.58;;;5.00;99.90;;;;;;4973310;28;20245;-78
2021/12/03 09:04:29;;;;;;;16.05;4.03;;;5.00;99.90;;;;;;4957841;28;20170;-79
2021/12/03 09:06:57;;;;;;;8.75;3.85;;;5.10;99.90;;;;;;4974465;28;20240;-82
2021/12/03 09:09:23;;;;;;;9.85;3.70;;;5.10;99.90;;;;;;4977363;28;20169;-77
2021/12/03 09:11:48;;;;;;;10.35;4.35;;;5.10;99.90;;;;;;4977140;28;20637;-80
2021/12/03 09:14:24;;;;;;;22.98;4.93;;;5.30;99.90;;;;;;4960297;28;20219;-77
2021/12/03 09:16:59;;;;;;;11.70;4.38;;;5.40;99.90;;;;;;4961027;28;20311;-76
2021/12/03 09:19:36;;;;;;;19.70;4.45;;;5.50;99.90;;;;;;4979446;28;20711;-77
2021/12/03 09:22:02;;;;;;;8.68;4.35;;;5.50;99.90;;;;;;4995336;28;20170;-76
2021/12/03 09:24:45;;;;;;;7.57;4.65;;;5.40;99.90;;;;;;4985857;28;20181;-76
2021/12/03 09:27:10;;;;;;;20.73;5.40;;;5.30;99.90;;;;;;4962605;28;20264;-77
2021/12/03 09:29:37;;;;;;;13.15;4.45;;;5.30;99.90;;;;;;4977827;28;20201;-77
2021/12/03 09:32:03;;;;;;;12.73;4.68;;;5.20;99.90;;;;;;4960178;28;20719;-76
2021/12/03 09:34:30;;;;;;;14.50;4.10;;;5.30;99.90;;;;;;4977463;28;20260;-77
2021/12/03 09:36:56;;;;;;;18.80;5.88;;;5.40;99.90;;;;;;4976997;28;20607;-77
2021/12/03 09:39:24;;;;;;;16.20;5.55;;;5.30;99.90;;;;;;4976634;28;20545;-77
2021/12/03 09:41:54;;;;;;;12.43;4.85;;;5.40;99.90;;;;;;4977103;28;20162;-77
2021/12/03 09:44:21;;;;;;;15.77;4.95;;;5.50;99.90;;;;;;4976242;28;20165;-78
2021/12/03 09:46:48;;;;;;;20.77;4.97;;;5.60;99.90;;;;;;4976140;28;20268;-77
2021/12/03 09:49:30;;;;;;;8.10;4.13;;;5.80;99.90;;;;;;4976369;28;20182;-78
2021/12/03 09:52:08;;;;;;;11.80;4.57;;;5.60;99.90;;;;;;4976301;28;20209;-78
2021/12/03 09:54:42;;;;;;;11.77;3.72;;;5.50;99.90;;;;;;4976434;28;20182;-78
2021/12/03 09:57:19;;;;;;;8.48;3.67;;;5.50;99.90;;;;;;4958985;28;20672;-78
2021/12/03 10:13:19;;;;;;;7.40;3.95;;;5.70;99.90;;;;;;4978406;28;20244;-78
2021/12/03 10:16:09;;;;;;;5.97;3.28;;;5.80;99.90;;;;;;4979524;28;20635;-78
2021/12/03 10:18:45;;;;;;;9.80;4.38;;;5.90;99.90;;;;;;4957754;28;20321;-78
2021/12/03 10:21:20;;;;;;;9.65;4.00;;;5.90;99.90;;;;;;4975775;28;20232;-77
2021/12/03 10:24:28;;;;;;;6.35;4.05;;;6.00;99.90;;;;;;4976407;28;20652;-78
2021/12/03 10:43:21;;;;;;;9.43;3.55;;;6.30;99.90;;;;;;4975472;28;20173;-79
2021/12/03 10:54:02;;;;;;;7.82;4.10;;;6.00;99.90;;;;;;4974995;28;20640;-77
2021/12/03 10:56:49;;;;;;;9.43;4.63;;;6.10;99.90;;;;;;4972684;28;20213;-84
2021/12/03 11:07:37;;;;;;;7.80;4.30;;;6.10;99.90;;;;;;4961996;28;20746;-77
2021/12/03 11:43:14;;;;;;;5.57;3.85;;;6.60;99.90;;;;;;4973889;28;20695;-78
2021/12/03 11:46:19;;;;;;;14.32;3.60;;;6.50;99.90;;;;;;4973698;28;20185;-79
2021/12/03 11:49:26;;;;;;;11.35;4.32;;;6.60;99.90;;;;;;4973800;28;20645;-77
2021/12/03 12:27:16;;;;;;;6.45;3.20;;;6.40;99.90;;;;;;4974939;28;20341;-77
2021/12/03 13:36:35;;;;;;;2.47;2.00;;;5.80;99.90;;;;;;4954007;29;20175;-77
2021/12/03 13:56:22;;;;;;;3.22;2.13;;;6.00;99.90;;;;;;4939809;29;20217;-78
2021/12/03 13:58:48;;;;;;;4.43;2.25;;;5.90;99.90;;;;;;4941035;29;20268;-76
2021/12/03 14:01:01;;;;;;;1.98;1.60;;;5.80;99.90;;;;;;4956835;29;20178;-81
2021/12/03 14:44:25;;;;;;;5.03;2.30;;;5.80;99.90;;;;;;4956082;29;20184;-80
2021/12/03 14:49:46;;;;;;;1.80;1.70;;;5.50;99.90;;;;;;4974843;28;20256;-82
2021/12/03 14:52:20;;;;;;;4.38;1.90;;;5.50;99.90;;;;;;4974824;28;20170;-82
2021/12/03 15:00:18;;;;;;;3.50;2.03;;;5.50;99.90;;;;;;4974443;28;20669;-77
2021/12/03 15:03:00;;;;;;;1.95;1.85;;;5.40;99.90;;;;;;4975997;28;20166;-76
2021/12/03 15:08:05;;;;;;;3.88;1.92;;;5.50;99.90;;;;;;4975474;28;20175;-79
2021/12/03 15:25:58;;;;;;;1.92;1.83;;;5.60;99.90;;;;;;4975794;28;20201;-78
2021/12/03 15:33:52;;;;;;;1.92;1.80;;;5.20;99.90;;;;;;4974261;28;20185;-79
2021/12/03 15:36:31;;;;;;;2.13;1.95;;;5.30;99.90;;;;;;4973629;28;20300;-79
2021/12/03 15:55:15;;;;;;;1.90;1.80;;;5.30;99.90;;;;;;4954515;29;20198;-76
2021/12/03 15:58:30;;;;;;;1.95;1.85;;;5.30;99.90;;;;;;4971401;28;20253;-77
2021/12/03 16:08:25;;;;;;;1.92;1.67;;;5.40;99.90;;;;;;4982033;28;20185;-78
2021/12/03 16:11:09;;;;;;;2.63;1.92;;;5.40;99.90;;;;;;4979184;28;20158;-76
2021/12/03 16:16:50;;;;;;;2.00;1.83;;;5.60;99.90;;;;;;4973947;28;20272;-79
2021/12/03 16:19:31;;;;;;;1.63;1.52;;;5.70;99.90;;;;;;4956316;28;20184;-77
2021/12/03 16:44:04;;;;;;;3.42;2.15;;;5.40;99.90;;;;;;4959700;28;20261;-75
2021/12/03 16:51:47;;;;;;;1.98;1.50;;;5.60;99.90;;;;;;4973727;28;20182;-80
2021/12/03 16:54:16;;;;;;;1.98;1.88;;;5.50;99.90;;;;;;4974539;28;20174;-78
2021/12/03 16:56:44;;;;;;;2.45;1.92;;;5.60;99.90;;;;;;4973716;28;20205;-78
2021/12/03 16:59:10;;;;;;;1.70;1.60;;;5.40;99.90;;;;;;4973165;28;20298;-79
2021/12/03 17:01:48;;;;;;;3.70;2.15;;;5.40;99.90;;;;;;4972020;28;20182;-78
2021/12/03 17:21:13;;;;;;;4.00;3.60;;;5.60;99.90;;;;;;4973171;28;20226;-77
2021/12/03 17:45:52;;;;;;;2.47;2.28;;;5.80;99.90;;;;;;4976690;28;20231;-77
2021/12/03 17:58:26;;;;;;;2.22;1.83;;;5.70;99.90;;;;;;4976788;28;20246;-76
2021/12/03 18:01:00;;;;;;;2.38;2.15;;;5.80;99.90;;;;;;4976394;28;20284;-77
2021/12/03 18:03:36;;;;;;;2.42;2.00;;;5.70;99.90;;;;;;4976173;28;20178;-77
2021/12/03 18:54:55;;;;;;;3.78;2.75;;;5.90;99.90;;;;;;4975372;28;20196;-77
2021/12/03 18:57:31;;;;;;;2.55;2.35;;;6.00;99.90;;;;;;4972159;28;20226;-83
2021/12/03 18:59:58;;;;;;;4.20;3.30;;;5.80;99.90;;;;;;4959151;28;20687;-78
2021/12/03 19:02:25;;;;;;;2.50;2.30;;;6.00;99.90;;;;;;4950216;28;20647;-79
2021/12/03 19:05:02;;;;;;;2.50;2.30;;;6.00;99.90;;;;;;4974761;28;20174;-79
2021/12/03 19:07:36;;;;;;;3.00;2.28;;;6.20;99.90;;;;;;4956686;28;20671;-85
2021/12/03 19:10:08;;;;;;;2.47;2.10;;;6.00;99.90;;;;;;4974067;28;20222;-79
2021/12/03 19:12:37;;;;;;;2.65;2.33;;;6.00;99.90;;;;;;4974745;28;20166;-84
2021/12/03 19:15:03;;;;;;;2.42;2.22;;;5.90;99.90;;;;;;4975501;28;20162;-80
2021/12/03 19:17:36;;;;;;;3.88;2.83;;;5.90;99.90;;;;;;4977012;28;20220;-78
2021/12/03 19:20:03;;;;;;;2.45;2.25;;;5.80;99.90;;;;;;4975090;28;20647;-80
2021/12/03 19:22:28;;;;;;;3.28;2.70;;;5.90;99.90;;;;;;4973527;28;20273;-80
2021/12/03 19:24:58;;;;;;;2.45;2.20;;;6.10;99.90;;;;;;4959603;28;20254;-78
2021/12/03 19:27:25;;;;;;;3.15;2.85;;;6.00;99.90;;;;;;4954443;29;20194;-78
2021/12/03 19:29:54;;;;;;;3.90;2.15;;;6.00;99.90;;;;;;4954613;29;20210;-78
2021/12/03 19:32:23;;;;;;;2.53;2.33;;;5.90;99.90;;;;;;4954859;29;20177;-79
2021/12/03 19:34:49;;;;;;;2.97;2.60;;;5.90;99.90;;;;;;4945334;29;20714;-78
2021/12/03 19:37:15;;;;;;;2.80;2.60;;;6.10;99.90;;;;;;4954913;29;20305;-79
2021/12/03 19:39:40;;;;;;;3.10;2.80;;;6.00;99.90;;;;;;4954799;29;20174;-78
2021/12/03 19:42:19;;;;;;;2.17;2.08;;;6.10;99.90;;;;;;4954891;29;20203;-77
2021/12/03 19:47:14;;;;;;;2.42;2.22;;;6.20;99.90;;;;;;4966257;28;20217;-79
2021/12/03 19:49:48;;;;;;;2.60;2.40;;;6.10;99.90;;;;;;4955022;29;20170;-79
2021/12/03 19:52:25;;;;;;;2.35;2.15;;;6.10;99.90;;;;;;4954194;28;20178;-78
2021/12/03 19:54:54;;;;;;;2.10;1.90;;;6.10;99.90;;;;;;4954452;29;20186;-79
2021/12/03 19:57:20;;;;;;;6.40;3.60;;;5.90;99.90;;;;;;4963122;28;20217;-78
2021/12/03 19:59:45;;;;;;;3.85;2.72;;;6.00;99.90;;;;;;4972458;28;20174;-79
2021/12/03 20:02:11;;;;;;;2.40;2.20;;;6.00;99.90;;;;;;4954192;28;20253;-79
2021/12/03 20:04:36;;;;;;;3.00;2.70;;;6.10;99.90;;;;;;4954245;28;20159;-79
2021/12/03 20:07:02;;;;;;;2.58;1.80;;;6.10;99.90;;;;;;4954125;29;20665;-83
2021/12/03 20:09:35;;;;;;;2.65;2.40;;;6.00;99.90;;;;;;4937591;29;20209;-78